Chantal — A8WQ3 — position and weather

sailwx.info

Track history (hours):
 
Tides and Currents Weather Stations Pressure Air Temp Water Temp Dewpoint Dewpoint Depression Visibility Wind Speed Wind Dir Waves Ship Positions

Chantal

Last reported at 2017-Apr-09 02:10 UTC. Time now 2017-Apr-28 18:11 UTC.
Position N 31°55' W 117°30'.
Warning: this ship's position is 19 days out of date.

Length 228 m; draft 8.3 m.

Type: Tanker. MMSI: 636014805.

Date/timePositionNaut miles runAvg speedWind from/ knotsBaromVisibWave heightAir tempDewpointWater temp
2017-Apr-09 02:10N 31°55' W 117°30'213.2
2017-Apr-09 02:00N 31°57' W 117°32'1413.1
2017-Apr-09 00:58N 32°10' W 117°36'613.2
2017-Apr-09 00:30N 32°16' W 117°38'713.5
2017-Apr-09 00:00N 32°22' W 117°41'713.4
2017-Apr-08 23:30N 32°28' W 117°44'713.6
2017-Apr-08 23:00N 32°34' W 117°47'713.3
2017-Apr-08 22:30N 32°41' W 117°49'713.2
2017-Apr-08 22:00N 32°47' W 117°52'713.2
2017-Apr-08 21:31N 32°53' W 117°55'713.2
2017-Apr-08 21:00N 32°59' W 117°57'713.0
2017-Apr-08 20:30N 33°05' W 118°00'612.7
2017-Apr-08 20:00N 33°11' W 118°03'713.1
2017-Apr-08 19:31N 33°17' W 118°06'612.2
2017-Apr-08 19:00N 33°23' W 118°08'612.0
2017-Apr-08 18:30N 33°29' W 118°10'612.1
2017-Apr-08 18:00N 33°35' W 118°13'510.3
2017-Apr-08 17:31N 33°40' W 118°12'4 8.0
2017-Apr-08 16:59N 33°44' W 118°12'3 0.2
2017-Apr-08 03:24N 33°46' W 118°13'0 0.0
2017-Apr-08 02:48N 33°46' W 118°13'0 0.2
2017-Apr-08 02:30N 33°46' W 118°13'0 0.1
2017-Apr-08 02:00N 33°46' W 118°13'0 0.0
2017-Apr-08 01:30N 33°46' W 118°13'0 0.0
2017-Apr-08 01:00N 33°46' W 118°13'0 0.0
2017-Apr-08 00:30N 33°46' W 118°13'0 0.0
2017-Apr-08 00:00N 33°46' W 118°13'0 0.0
2017-Apr-07 23:30N 33°46' W 118°13'0 0.0
2017-Apr-07 23:00N 33°46' W 118°13'0 0.0
2017-Apr-07 22:30N 33°46' W 118°13'0 0.0
2017-Apr-07 22:00N 33°46' W 118°13'0 0.0
2017-Apr-07 21:06N 33°46' W 118°13'0 0.0
2017-Apr-07 21:00N 33°46' W 118°13'0 0.1
2017-Apr-07 20:06N 33°46' W 118°13'0 0.2
2017-Apr-07 19:54N 33°46' W 118°13'0 0.0
2017-Apr-07 19:30N 33°46' W 118°13'0 0.0
2017-Apr-07 19:00N 33°46' W 118°13'0 0.0
2017-Apr-07 18:30N 33°46' W 118°13'0 0.0
2017-Apr-07 18:00N 33°46' W 118°13'0 0.0
2017-Apr-07 15:00N 33°46' W 118°13'0 0.0
2017-Apr-07 13:14N 33°46' W 118°13'0 0.2
2017-Apr-07 13:00N 33°46' W 118°13'1 1.0
2017-Apr-07 12:29N 33°46' W 118°13'2 3.4
2017-Apr-07 12:00N 33°44' W 118°13'3 6.7
2017-Apr-07 11:30N 33°42' W 118°11'2 3.0
2017-Apr-07 10:57N 33°42' W 118°09'0 0.2
2017-Apr-07 10:29N 33°42' W 118°09'0 0.1
2017-Apr-07 09:56N 33°42' W 118°09'0 0.1
2017-Apr-07 09:29N 33°42' W 118°09'0 0.1
2017-Apr-07 08:56N 33°42' W 118°09'0 0.0
2017-Apr-07 08:29N 33°42' W 118°09'0 0.0
2017-Apr-07 07:59N 33°42' W 118°09'0 0.0
2017-Apr-07 07:26N 33°42' W 118°09'0 0.0
2017-Apr-07 06:53N 33°42' W 118°09'0 0.0
2017-Apr-07 06:29N 33°42' W 118°09'0 0.0
2017-Apr-07 05:56N 33°42' W 118°09'0 0.0
2017-Apr-07 05:29N 33°42' W 118°09'0 0.0
2017-Apr-07 04:56N 33°42' W 118°09'0 0.1
2017-Apr-07 04:29N 33°42' W 118°09'0 0.1
2017-Apr-07 04:00N 33°42' W 118°09'2 3.6
2017-Apr-07 03:30N 33°40' W 118°08'4 7.2
2017-Apr-07 03:00N 33°37' W 118°09'510.6
2017-Apr-07 02:30N 33°32' W 118°08'611.0
2017-Apr-07 02:00N 33°27' W 118°06'611.2
2017-Apr-07 01:30N 33°21' W 118°04'611.6
2017-Apr-07 01:00N 33°16' W 118°02'611.8
2017-Apr-07 00:30N 33°10' W 118°01'611.9
2017-Apr-07 00:01N 33°04' W 118°01'510.3
2017-Apr-06 23:31N 32°59' W 118°02'3 6.2
2017-Apr-06 23:01N 32°56' W 118°03'713.8
2017-Apr-06 22:31N 32°49' W 118°06'713.6
2017-Apr-06 22:01N 32°43' W 118°08'713.2
2017-Apr-06 21:31N 32°37' W 118°12'713.6
2017-Apr-06 21:00N 32°33' W 118°18'713.5
2017-Apr-06 20:30N 32°29' W 118°25'713.9
2017-Apr-06 20:00N 32°25' W 118°31'713.5
2017-Apr-06 19:30N 32°20' W 118°38'713.5
2017-Apr-06 19:00N 32°16' W 118°44'713.5
2017-Apr-06 18:31N 32°12' W 118°50'713.6
2017-Apr-06 18:00N 32°08' W 118°57'713.7
2017-Apr-06 17:30N 32°04' W 119°03'713.6
2017-Apr-06 17:00N 31°59' W 119°09'2 3.5
2017-Apr-06 16:30N 31°59' W 119°11'1 1.8
2017-Apr-06 16:00N 31°59' W 119°12'1 1.9
2017-Apr-06 15:30N 31°59' W 119°13'1 2.6
2017-Apr-06 15:00N 31°59' W 119°15'1 2.3
2017-Apr-06 14:30N 31°60' W 119°16'4 3.8
2017-Apr-06 13:30N 32°01' W 119°21'1 2.7
2017-Apr-06 13:00N 32°01' W 119°22'1 1.1
2017-Apr-06 12:30N 32°01' W 119°23'0 0.8
2017-Apr-06 12:00N 32°01' W 119°23'0 0.9
2017-Apr-06 11:30N 32°01' W 119°24'0 1.0
2017-Apr-06 11:00N 32°01' W 119°24'1 1.1
2017-Apr-06 10:30N 32°01' W 119°25'1 1.1
2017-Apr-06 10:00N 32°01' W 119°26'1 1.1
2017-Apr-06 09:30N 32°01' W 119°26'1 1.2
2017-Apr-06 09:00N 32°02' W 119°27'1 1.1
2017-Apr-06 08:27N 32°02' W 119°28'1 1.4
2017-Apr-06 08:00N 32°02' W 119°28'1 1.1
2017-Apr-06 07:30N 32°02' W 119°29'1 1.4
2017-Apr-06 07:00N 32°02' W 119°30'1 1.0
2017-Apr-06 06:30N 32°02' W 119°30'1 1.6
2017-Apr-06 06:00N 32°02' W 119°31'1 1.5
2017-Apr-06 05:30N 32°02' W 119°32'1 2.0
2017-Apr-06 05:00N 32°02' W 119°33'1 2.0
2017-Apr-06 04:30N 32°02' W 119°35'1 1.9
2017-Apr-06 04:00N 32°03' W 119°35'1 2.1
2017-Apr-06 03:30N 32°03' W 119°37'1 1.8
2017-Apr-06 03:00N 32°03' W 119°38'1 1.8
2017-Apr-06 02:30N 32°04' W 119°39'2 4.5
2017-Apr-06 02:00N 32°05' W 119°40'3 5.6
2017-Apr-06 01:30N 32°08' W 119°43'3 5.2
2017-Apr-06 01:00N 32°10' W 119°45'2 2.8
2017-Apr-06 00:09N 32°12' W 119°46'6 6.0
2017-Apr-05 23:05N 32°17' W 119°51'1 6.1
2017-Apr-05 22:55N 32°17' W 119°52'2 2.9
2017-Apr-05 22:04N 32°17' W 119°55'0 0.1
2017-Apr-05 22:00N 32°17' W 119°55'0 0.4
2017-Apr-05 21:29N 32°17' W 119°55'1 1.4
2017-Apr-05 20:35N 32°16' W 119°54'0 4.3
2017-Apr-05 20:30N 32°16' W 119°54'1 1.1
2017-Apr-05 20:00N 32°15' W 119°54'1 1.4
2017-Apr-05 19:23N 32°16' W 119°55'1 1.8
2017-Apr-05 18:59N 32°16' W 119°56'1 2.6
2017-Apr-05 18:24N 32°16' W 119°58'2 4.7
2017-Apr-05 18:00N 32°16' W 119°60'4 7.9
2017-Apr-05 17:30N 32°16' W 120°05'3 6.0
2017-Apr-05 16:58N 32°14' W 120°08'5 9.3
2017-Apr-05 16:26N 32°14' W 120°14'2 4.1
2017-Apr-05 16:00N 32°14' W 120°16'0 0.6
2017-Apr-05 15:30N 32°14' W 120°16'0 0.6
2017-Apr-05 15:00N 32°14' W 120°16'1 0.6
2017-Apr-05 14:00N 32°15' W 120°17'0 0.5
2017-Apr-05 13:31N 32°15' W 120°17'0 0.5
2017-Apr-05 12:51N 32°15' W 120°17'0 0.5
2017-Apr-05 12:27N 32°15' W 120°18'2 0.5
2017-Apr-05 08:35N 32°17' W 120°18'0 0.5
2017-Apr-05 08:29N 32°17' W 120°18'0 0.5
2017-Apr-05 07:29N 32°18' W 120°18'0 0.4
2017-Apr-05 07:00N 32°18' W 120°18'1 0.6
2017-Apr-05 05:32N 32°19' W 120°18'0 0.8
2017-Apr-05 05:31N 32°19' W 120°18'0 0.6
2017-Apr-05 05:00N 32°19' W 120°18'0 0.7
2017-Apr-05 04:28N 32°19' W 120°18'0 0.8
2017-Apr-05 04:00N 32°20' W 120°18'1 0.9
2017-Apr-05 03:23N 32°20' W 120°18'0 0.8
2017-Apr-05 02:49N 32°21' W 120°18'0 0.9
2017-Apr-05 02:30N 32°21' W 120°18'0 1.0
2017-Apr-05 02:00N 32°22' W 120°18'1 1.3
2017-Apr-05 01:28N 32°22' W 120°18'6 6.0
2017-Apr-05 00:25N 32°28' W 120°20'3 7.5
2017-Apr-05 00:00N 32°31' W 120°22'1 1.7
2017-Apr-04 23:30N 32°32' W 120°22'3 5.5
2017-Apr-04 23:00N 32°30' W 120°19'3 5.0
2017-Apr-04 22:30N 32°29' W 120°17'4 5.8
2017-Apr-04 21:52N 32°27' W 120°14'5 5.7
2017-Apr-04 20:59N 32°23' W 120°09'3 6.2
2017-Apr-04 20:28N 32°21' W 120°06'3 5.6
2017-Apr-04 19:55N 32°19' W 120°03'3 5.7
2017-Apr-04 19:26N 32°18' W 120°01'2 4.5
2017-Apr-04 19:00N 32°16' W 119°59'1 1.2
2017-Apr-04 18:30N 32°16' W 119°60'1 1.4
2017-Apr-04 18:00N 32°16' W 120°00'1 1.4
2017-Apr-04 17:29N 32°16' W 120°01'1 1.4
2017-Apr-04 16:59N 32°17' W 120°02'1 1.4
2017-Apr-04 16:24N 32°17' W 120°03'3 2.7
2017-Apr-04 15:15N 32°15' W 120°00'1 2.0
2017-Apr-04 14:33N 32°16' W 120°01'0 6.4
2017-Apr-04 14:30N 32°16' W 120°01'3 0.3
2017-Apr-04 04:01N 32°13' W 120°02'0 5.6
2017-Apr-04 04:00N 32°13' W 120°02'5 7.7
2017-Apr-04 03:18N 32°10' W 119°57'1 4.2
2017-Apr-04 02:57N 32°09' W 119°56'4 4.0
2017-Apr-04 01:55N 32°11' W 120°00'5 9.1
2017-Apr-04 01:21N 32°13' W 120°05'4 8.4
2017-Apr-04 00:49N 32°15' W 120°10'2 5.9
2017-Apr-04 00:25N 32°16' W 120°13'8 5.4
2017-Apr-03 22:59N 32°17' W 120°22'1 1.7
2017-Apr-03 22:30N 32°18' W 120°23'1 1.5
2017-Apr-03 21:57N 32°17' W 120°23'7 5.7
2017-Apr-03 20:40N 32°11' W 120°18'9 6.2
2017-Apr-03 19:10N 32°03' W 120°12'2 6.2
2017-Apr-03 18:55N 32°01' W 120°11'3 7.3
2017-Apr-03 18:27N 31°59' W 120°09'13 7.5
2017-Apr-03 16:46N 31°47' W 120°02'2 6.1
2017-Apr-03 16:30N 31°46' W 120°01'9 5.4
2017-Apr-03 14:54N 31°38' W 119°56'1 2.8
2017-Apr-03 14:25N 31°37' W 119°55'3 1.4
2017-Apr-03 12:19N 31°40' W 119°55'2 1.4
2017-Apr-03 10:50N 31°42' W 119°55'0 1.2
2017-Apr-03 10:30N 31°43' W 119°55'1 1.3
2017-Apr-03 10:00N 31°43' W 119°54'1 1.4
2017-Apr-03 09:28N 31°44' W 119°54'1 1.4
2017-Apr-03 09:00N 31°45' W 119°54'1 1.4
2017-Apr-03 08:24N 31°46' W 119°54'1 1.5
2017-Apr-03 07:59N 31°46' W 119°53'1 1.6
2017-Apr-03 07:30N 31°47' W 119°53'1 1.5
2017-Apr-03 06:57N 31°48' W 119°53'1 1.6
2017-Apr-03 06:30N 31°48' W 119°53'1 1.6
2017-Apr-03 05:54N 31°49' W 119°52'1 1.7
2017-Apr-03 05:25N 31°50' W 119°52'1 1.7
2017-Apr-03 04:53N 31°51' W 119°52'3 1.7
2017-Apr-03 03:12N 31°54' W 119°51'3 1.8
2017-Apr-03 01:35N 31°57' W 119°51'1 1.8
2017-Apr-03 01:14N 31°57' W 119°51'0 1.8
2017-Apr-03 00:58N 31°58' W 119°51'2 1.9
2017-Apr-02 23:45N 32°00' W 119°51'1 2.0
2017-Apr-02 23:15N 32°01' W 119°51'1 2.0
2017-Apr-02 23:00N 32°02' W 119°51'3 2.0
2017-Apr-02 21:25N 32°05' W 119°51'1 1.5
2017-Apr-02 21:00N 32°05' W 119°51'510.6
2017-Apr-02 20:30N 32°04' W 119°45'5 9.4
2017-Apr-02 20:00N 32°03' W 119°39'1 1.8
2017-Apr-02 19:30N 32°04' W 119°39'1 1.8
2017-Apr-02 19:00N 32°05' W 119°39'1 1.7
2017-Apr-02 18:22N 32°06' W 119°40'1 1.7
2017-Apr-02 18:00N 32°07' W 119°40'1 1.8
2017-Apr-02 17:30N 32°08' W 119°40'1 1.6
2017-Apr-02 17:00N 32°08' W 119°40'1 1.5
2017-Apr-02 16:30N 32°09' W 119°40'1 1.4
2017-Apr-02 16:00N 32°10' W 119°41'1 1.4
2017-Apr-02 15:30N 32°11' W 119°41'1 1.4
2017-Apr-02 15:00N 32°11' W 119°41'2 1.7
2017-Apr-02 14:00N 32°13' W 119°42'1 1.7
2017-Apr-02 13:30N 32°14' W 119°42'1 1.8
2017-Apr-02 13:00N 32°14' W 119°43'1 1.7
2017-Apr-02 12:15N 32°15' W 119°44'0 1.6
2017-Apr-02 12:00N 32°16' W 119°44'1 1.4
2017-Apr-02 11:30N 32°16' W 119°44'1 1.4
2017-Apr-02 11:00N 32°17' W 119°45'1 1.2
2017-Apr-02 10:30N 32°17' W 119°45'1 1.2
2017-Apr-02 10:00N 32°17' W 119°45'5 9.5
2017-Apr-02 09:30N 32°16' W 119°39'712.9
2017-Apr-02 09:00N 32°17' W 119°31'613.0
2017-Apr-02 08:30N 32°18' W 119°24'713.3
2017-Apr-02 08:00N 32°18' W 119°16'713.1
2017-Apr-02 07:30N 32°19' W 119°08'713.0
2017-Apr-02 07:00N 32°20' W 119°01'713.3
2017-Apr-02 06:30N 32°22' W 118°53'713.3
2017-Apr-02 06:00N 32°24' W 118°46'713.2
2017-Apr-02 05:30N 32°27' W 118°39'713.1
2017-Apr-02 05:00N 32°29' W 118°32'713.3
2017-Apr-02 04:30N 32°32' W 118°24'713.4
2017-Apr-02 04:00N 32°34' W 118°17'713.2
2017-Apr-02 03:30N 32°37' W 118°10'714.2
2017-Apr-02 03:00N 32°45' W 118°09'713.9
2017-Apr-02 02:31N 32°51' W 118°08'713.8
2017-Apr-02 02:01N 32°58' W 118°08'714.1
2017-Apr-02 01:31N 33°05' W 118°08'714.2
2017-Apr-02 01:01N 33°12' W 118°07'713.9
2017-Apr-02 00:30N 33°19' W 118°06'611.8
2017-Apr-02 00:00N 33°25' W 118°08'611.7
2017-Apr-01 23:30N 33°31' W 118°11'611.4
2017-Apr-01 23:00N 33°36' W 118°13'611.1
2017-Apr-01 22:30N 33°41' W 118°10'2 2.6
2017-Apr-01 21:55N 33°42' W 118°08'0 0.0
2017-Apr-01 21:28N 33°42' W 118°08'0 0.0
2017-Apr-01 20:58N 33°42' W 118°08'0 0.0
2017-Apr-01 20:28N 33°42' W 118°08'0 0.0
2017-Apr-01 19:58N 33°42' W 118°08'0 0.0
2017-Apr-01 19:28N 33°42' W 118°08'0 0.1
2017-Apr-01 18:55N 33°42' W 118°09'0 0.0
2017-Apr-01 18:28N 33°42' W 118°09'0 0.0
2017-Apr-01 16:49N 33°42' W 118°08'0 0.0
2017-Apr-01 16:25N 33°42' W 118°08'0 0.0
2017-Apr-01 15:58N 33°42' W 118°08'0 0.0
2017-Apr-01 15:25N 33°42' W 118°08'0 0.0
2017-Apr-01 14:55N 33°42' W 118°08'0 0.1
2017-Apr-01 13:55N 33°42' W 118°08'0 0.0
2017-Apr-01 13:25N 33°42' W 118°08'0 0.0
2017-Apr-01 12:49N 33°42' W 118°08'0 0.0
2017-Apr-01 12:13N 33°42' W 118°08'0 0.0
2017-Apr-01 11:55N 33°42' W 118°08'0 0.1
2017-Apr-01 11:28N 33°42' W 118°08'0 0.1
2017-Apr-01 10:58N 33°42' W 118°08'0 0.0
2017-Apr-01 10:01N 33°42' W 118°08'0 0.1
2017-Apr-01 09:52N 33°42' W 118°08'0 0.1
2017-Apr-01 09:25N 33°42' W 118°08'0 0.1
2017-Apr-01 08:55N 33°42' W 118°08'0 0.0
2017-Apr-01 08:25N 33°42' W 118°08'0 0.0
2017-Apr-01 07:58N 33°42' W 118°08'0 0.0
2017-Apr-01 07:28N 33°42' W 118°08'0 0.0
2017-Apr-01 06:58N 33°42' W 118°08'0 0.0
2017-Apr-01 06:28N 33°42' W 118°08'0 0.0
2017-Apr-01 05:58N 33°42' W 118°08'0 0.0
2017-Apr-01 05:28N 33°42' W 118°08'0 0.1
2017-Apr-01 04:58N 33°42' W 118°08'0 0.1
2017-Apr-01 04:28N 33°42' W 118°08'0 0.1
2017-Apr-01 03:58N 33°42' W 118°08'0 0.0
2017-Apr-01 03:28N 33°42' W 118°08'0 0.0
2017-Apr-01 02:52N 33°42' W 118°08'0 0.0
2017-Apr-01 02:25N 33°42' W 118°08'0 0.1
2017-Apr-01 01:58N 33°42' W 118°08'0 0.1
2017-Apr-01 01:25N 33°42' W 118°08'0 0.0
2017-Apr-01 00:55N 33°42' W 118°08'0 0.0
2017-Apr-01 00:19N 33°42' W 118°08'0 0.0
2017-Mar-31 23:55N 33°42' W 118°08'0 0.0
2017-Mar-31 23:13N 33°42' W 118°08'0 0.0
2017-Mar-31 22:49N 33°42' W 118°08'0 0.0
2017-Mar-31 22:28N 33°42' W 118°08'0 0.0
2017-Mar-31 21:58N 33°42' W 118°08'0 0.0
2017-Mar-31 21:28N 33°42' W 118°08'0 0.0
2017-Mar-31 20:58N 33°42' W 118°08'0 0.1
2017-Mar-31 20:28N 33°42' W 118°08'0 0.1
2017-Mar-31 19:58N 33°42' W 118°08'0 0.1
2017-Mar-31 19:28N 33°42' W 118°08'0 0.0
2017-Mar-31 18:58N 33°42' W 118°08'0 0.0
2017-Mar-31 18:25N 33°42' W 118°08'0 0.0
2017-Mar-31 17:55N 33°42' W 118°08'0 0.1
2017-Mar-31 17:28N 33°42' W 118°08'0 0.0
2017-Mar-31 12:01N 33°42' W 118°08'0 0.1
2017-Mar-31 11:49N 33°42' W 118°08'0 0.1
2017-Mar-31 09:31N 33°42' W 118°09'0 0.2
2017-Mar-31 09:13N 33°42' W 118°08'0 0.0
2017-Mar-31 08:55N 33°42' W 118°08'0 0.0
2017-Mar-31 08:19N 33°42' W 118°08'0 0.1
2017-Mar-31 07:55N 33°42' W 118°09'0 0.0
2017-Mar-31 07:19N 33°42' W 118°09'0 0.1
2017-Mar-31 06:43N 33°42' W 118°08'0 0.0
2017-Mar-31 06:25N 33°42' W 118°08'0 0.1
2017-Mar-31 03:23N 33°42' W 118°09'4 1.3
2017-Mar-31 00:16N 33°44' W 118°13'0 0.0
2017-Mar-30 23:31N 33°44' W 118°13'0 0.0
2017-Mar-30 22:33N 33°44' W 118°13'0 0.1
2017-Mar-30 21:33N 33°44' W 118°13'0 0.1
2017-Mar-30 20:33N 33°44' W 118°13'0 0.0
2017-Mar-30 19:34N 33°44' W 118°13'0 0.1
2017-Mar-30 18:33N 33°44' W 118°13'0 0.0
2017-Mar-30 17:33N 33°44' W 118°13'0 0.1
2017-Mar-30 16:34N 33°44' W 118°13'0 0.3
2017-Mar-30 15:34N 33°44' W 118°13'6 5.7
2017-Mar-30 14:33N 33°38' W 118°13'9 8.7
2017-Mar-30 13:34N 33°37' W 118°23'1110.5
2017-Mar-30 12:33N 33°42' W 118°34'1211.6
2017-Mar-30 11:34N 33°48' W 118°46'3 2.5
2017-Mar-30 10:33N 33°46' W 118°48'1 1.0
2017-Mar-30 09:34N 33°45' W 118°47'7 7.5
2017-Mar-30 08:34N 33°51' W 118°53'1110.6
2017-Mar-30 07:34N 33°52' W 119°05'1212.1
2017-Mar-30 06:33N 33°50' W 119°20'1212.3
2017-Mar-30 05:34N 33°48' W 119°34'1111.3
2017-Mar-30 04:33N 33°46' W 119°48'1110.7
2017-Mar-30 03:33N 33°44' W 120°00'1211.1
2017-Mar-30 02:28N 33°44' W 120°15'  
Track history (hours):
 
Tides and Currents Weather Stations Pressure Air Temp Water Temp Dewpoint Dewpoint Depression Visibility Wind Speed Wind Dir Waves Ship Positions

Chantal

Last reported at 2017-Apr-09 02:10 UTC. Time now 2017-Apr-28 18:11 UTC.
Position N 31°55' W 117°30'.
Warning: this ship's position is 19 days out of date.

Length 228 m; draft 8.3 m.

Type: Tanker. MMSI: 636014805.

Date/timePositionNaut miles runAvg speedWind from/ knotsBaromVisibWave heightAir tempDewpointWater temp
2017-Apr-09 02:10N 31°55' W 117°30'213.2
2017-Apr-09 02:00N 31°57' W 117°32'1413.1
2017-Apr-09 00:58N 32°10' W 117°36'613.2
2017-Apr-09 00:30N 32°16' W 117°38'713.5
2017-Apr-09 00:00N 32°22' W 117°41'713.4
2017-Apr-08 23:30N 32°28' W 117°44'713.6
2017-Apr-08 23:00N 32°34' W 117°47'713.3
2017-Apr-08 22:30N 32°41' W 117°49'713.2
2017-Apr-08 22:00N 32°47' W 117°52'713.2
2017-Apr-08 21:31N 32°53' W 117°55'713.2
2017-Apr-08 21:00N 32°59' W 117°57'713.0
2017-Apr-08 20:30N 33°05' W 118°00'612.7
2017-Apr-08 20:00N 33°11' W 118°03'713.1
2017-Apr-08 19:31N 33°17' W 118°06'612.2
2017-Apr-08 19:00N 33°23' W 118°08'612.0
2017-Apr-08 18:30N 33°29' W 118°10'612.1
2017-Apr-08 18:00N 33°35' W 118°13'510.3
2017-Apr-08 17:31N 33°40' W 118°12'4 8.0
2017-Apr-08 16:59N 33°44' W 118°12'3 0.2
2017-Apr-08 03:24N 33°46' W 118°13'0 0.0
2017-Apr-08 02:48N 33°46' W 118°13'0 0.2
2017-Apr-08 02:30N 33°46' W 118°13'0 0.1
2017-Apr-08 02:00N 33°46' W 118°13'0 0.0
2017-Apr-08 01:30N 33°46' W 118°13'0 0.0
2017-Apr-08 01:00N 33°46' W 118°13'0 0.0
2017-Apr-08 00:30N 33°46' W 118°13'0 0.0
2017-Apr-08 00:00N 33°46' W 118°13'0 0.0
2017-Apr-07 23:30N 33°46' W 118°13'0 0.0
2017-Apr-07 23:00N 33°46' W 118°13'0 0.0
2017-Apr-07 22:30N 33°46' W 118°13'0 0.0
2017-Apr-07 22:00N 33°46' W 118°13'0 0.0
2017-Apr-07 21:06N 33°46' W 118°13'0 0.0
2017-Apr-07 21:00N 33°46' W 118°13'0 0.1
2017-Apr-07 20:06N 33°46' W 118°13'0 0.2
2017-Apr-07 19:54N 33°46' W 118°13'0 0.0
2017-Apr-07 19:30N 33°46' W 118°13'0 0.0
2017-Apr-07 19:00N 33°46' W 118°13'0 0.0
2017-Apr-07 18:30N 33°46' W 118°13'0 0.0
2017-Apr-07 18:00N 33°46' W 118°13'0 0.0
2017-Apr-07 15:00N 33°46' W 118°13'0 0.0
2017-Apr-07 13:14N 33°46' W 118°13'0 0.2
2017-Apr-07 13:00N 33°46' W 118°13'1 1.0
2017-Apr-07 12:29N 33°46' W 118°13'2 3.4
2017-Apr-07 12:00N 33°44' W 118°13'3 6.7
2017-Apr-07 11:30N 33°42' W 118°11'2 3.0
2017-Apr-07 10:57N 33°42' W 118°09'0 0.2
2017-Apr-07 10:29N 33°42' W 118°09'0 0.1
2017-Apr-07 09:56N 33°42' W 118°09'0 0.1
2017-Apr-07 09:29N 33°42' W 118°09'0 0.1
2017-Apr-07 08:56N 33°42' W 118°09'0 0.0
2017-Apr-07 08:29N 33°42' W 118°09'0 0.0
2017-Apr-07 07:59N 33°42' W 118°09'0 0.0
2017-Apr-07 07:26N 33°42' W 118°09'0 0.0
2017-Apr-07 06:53N 33°42' W 118°09'0 0.0
2017-Apr-07 06:29N 33°42' W 118°09'0 0.0
2017-Apr-07 05:56N 33°42' W 118°09'0 0.0
2017-Apr-07 05:29N 33°42' W 118°09'0 0.0
2017-Apr-07 04:56N 33°42' W 118°09'0 0.1
2017-Apr-07 04:29N 33°42' W 118°09'0 0.1
2017-Apr-07 04:00N 33°42' W 118°09'2 3.6
2017-Apr-07 03:30N 33°40' W 118°08'4 7.2
2017-Apr-07 03:00N 33°37' W 118°09'510.6
2017-Apr-07 02:30N 33°32' W 118°08'611.0
2017-Apr-07 02:00N 33°27' W 118°06'611.2
2017-Apr-07 01:30N 33°21' W 118°04'611.6
2017-Apr-07 01:00N 33°16' W 118°02'611.8
2017-Apr-07 00:30N 33°10' W 118°01'611.9
2017-Apr-07 00:01N 33°04' W 118°01'510.3
2017-Apr-06 23:31N 32°59' W 118°02'3 6.2
2017-Apr-06 23:01N 32°56' W 118°03'713.8
2017-Apr-06 22:31N 32°49' W 118°06'713.6
2017-Apr-06 22:01N 32°43' W 118°08'713.2
2017-Apr-06 21:31N 32°37' W 118°12'713.6
2017-Apr-06 21:00N 32°33' W 118°18'713.5
2017-Apr-06 20:30N 32°29' W 118°25'713.9
2017-Apr-06 20:00N 32°25' W 118°31'713.5
2017-Apr-06 19:30N 32°20' W 118°38'713.5
2017-Apr-06 19:00N 32°16' W 118°44'713.5
2017-Apr-06 18:31N 32°12' W 118°50'713.6
2017-Apr-06 18:00N 32°08' W 118°57'713.7
2017-Apr-06 17:30N 32°04' W 119°03'713.6
2017-Apr-06 17:00N 31°59' W 119°09'2 3.5
2017-Apr-06 16:30N 31°59' W 119°11'1 1.8
2017-Apr-06 16:00N 31°59' W 119°12'1 1.9
2017-Apr-06 15:30N 31°59' W 119°13'1 2.6
2017-Apr-06 15:00N 31°59' W 119°15'1 2.3
2017-Apr-06 14:30N 31°60' W 119°16'4 3.8
2017-Apr-06 13:30N 32°01' W 119°21'1 2.7
2017-Apr-06 13:00N 32°01' W 119°22'1 1.1
2017-Apr-06 12:30N 32°01' W 119°23'0 0.8
2017-Apr-06 12:00N 32°01' W 119°23'0 0.9
2017-Apr-06 11:30N 32°01' W 119°24'0 1.0
2017-Apr-06 11:00N 32°01' W 119°24'1 1.1
2017-Apr-06 10:30N 32°01' W 119°25'1 1.1
2017-Apr-06 10:00N 32°01' W 119°26'1 1.1
2017-Apr-06 09:30N 32°01' W 119°26'1 1.2
2017-Apr-06 09:00N 32°02' W 119°27'1 1.1
2017-Apr-06 08:27N 32°02' W 119°28'1 1.4
2017-Apr-06 08:00N 32°02' W 119°28'1 1.1
2017-Apr-06 07:30N 32°02' W 119°29'1 1.4
2017-Apr-06 07:00N 32°02' W 119°30'1 1.0
2017-Apr-06 06:30N 32°02' W 119°30'1 1.6
2017-Apr-06 06:00N 32°02' W 119°31'1 1.5
2017-Apr-06 05:30N 32°02' W 119°32'1 2.0
2017-Apr-06 05:00N 32°02' W 119°33'1 2.0
2017-Apr-06 04:30N 32°02' W 119°35'1 1.9
2017-Apr-06 04:00N 32°03' W 119°35'1 2.1
2017-Apr-06 03:30N 32°03' W 119°37'1 1.8
2017-Apr-06 03:00N 32°03' W 119°38'1 1.8
2017-Apr-06 02:30N 32°04' W 119°39'2 4.5
2017-Apr-06 02:00N 32°05' W 119°40'3 5.6
2017-Apr-06 01:30N 32°08' W 119°43'3 5.2
2017-Apr-06 01:00N 32°10' W 119°45'2 2.8
2017-Apr-06 00:09N 32°12' W 119°46'6 6.0
2017-Apr-05 23:05N 32°17' W 119°51'1 6.1
2017-Apr-05 22:55N 32°17' W 119°52'2 2.9
2017-Apr-05 22:04N 32°17' W 119°55'0 0.1
2017-Apr-05 22:00N 32°17' W 119°55'0 0.4
2017-Apr-05 21:29N 32°17' W 119°55'1 1.4
2017-Apr-05 20:35N 32°16' W 119°54'0 4.3
2017-Apr-05 20:30N 32°16' W 119°54'1 1.1
2017-Apr-05 20:00N 32°15' W 119°54'1 1.4
2017-Apr-05 19:23N 32°16' W 119°55'1 1.8
2017-Apr-05 18:59N 32°16' W 119°56'1 2.6
2017-Apr-05 18:24N 32°16' W 119°58'2 4.7
2017-Apr-05 18:00N 32°16' W 119°60'4 7.9
2017-Apr-05 17:30N 32°16' W 120°05'3 6.0
2017-Apr-05 16:58N 32°14' W 120°08'5 9.3
2017-Apr-05 16:26N 32°14' W 120°14'2 4.1
2017-Apr-05 16:00N 32°14' W 120°16'0 0.6
2017-Apr-05 15:30N 32°14' W 120°16'0 0.6
2017-Apr-05 15:00N 32°14' W 120°16'1 0.6
2017-Apr-05 14:00N 32°15' W 120°17'0 0.5
2017-Apr-05 13:31N 32°15' W 120°17'0 0.5
2017-Apr-05 12:51N 32°15' W 120°17'0 0.5
2017-Apr-05 12:27N 32°15' W 120°18'2 0.5
2017-Apr-05 08:35N 32°17' W 120°18'0 0.5
2017-Apr-05 08:29N 32°17' W 120°18'0 0.5
2017-Apr-05 07:29N 32°18' W 120°18'0 0.4
2017-Apr-05 07:00N 32°18' W 120°18'1 0.6
2017-Apr-05 05:32N 32°19' W 120°18'0 0.8
2017-Apr-05 05:31N 32°19' W 120°18'0 0.6
2017-Apr-05 05:00N 32°19' W 120°18'0 0.7
2017-Apr-05 04:28N 32°19' W 120°18'0 0.8
2017-Apr-05 04:00N 32°20' W 120°18'1 0.9
2017-Apr-05 03:23N 32°20' W 120°18'0 0.8
2017-Apr-05 02:49N 32°21' W 120°18'0 0.9
2017-Apr-05 02:30N 32°21' W 120°18'0 1.0
2017-Apr-05 02:00N 32°22' W 120°18'1 1.3
2017-Apr-05 01:28N 32°22' W 120°18'6 6.0
2017-Apr-05 00:25N 32°28' W 120°20'3 7.5
2017-Apr-05 00:00N 32°31' W 120°22'1 1.7
2017-Apr-04 23:30N 32°32' W 120°22'3 5.5
2017-Apr-04 23:00N 32°30' W 120°19'3 5.0
2017-Apr-04 22:30N 32°29' W 120°17'4 5.8
2017-Apr-04 21:52N 32°27' W 120°14'5 5.7
2017-Apr-04 20:59N 32°23' W 120°09'3 6.2
2017-Apr-04 20:28N 32°21' W 120°06'3 5.6
2017-Apr-04 19:55N 32°19' W 120°03'3 5.7
2017-Apr-04 19:26N 32°18' W 120°01'2 4.5
2017-Apr-04 19:00N 32°16' W 119°59'1 1.2
2017-Apr-04 18:30N 32°16' W 119°60'1 1.4
2017-Apr-04 18:00N 32°16' W 120°00'1 1.4
2017-Apr-04 17:29N 32°16' W 120°01'1 1.4
2017-Apr-04 16:59N 32°17' W 120°02'1 1.4
2017-Apr-04 16:24N 32°17' W 120°03'3 2.7
2017-Apr-04 15:15N 32°15' W 120°00'1 2.0
2017-Apr-04 14:33N 32°16' W 120°01'0 6.4
2017-Apr-04 14:30N 32°16' W 120°01'3 0.3
2017-Apr-04 04:01N 32°13' W 120°02'0 5.6
2017-Apr-04 04:00N 32°13' W 120°02'5 7.7
2017-Apr-04 03:18N 32°10' W 119°57'1 4.2
2017-Apr-04 02:57N 32°09' W 119°56'4 4.0
2017-Apr-04 01:55N 32°11' W 120°00'5 9.1
2017-Apr-04 01:21N 32°13' W 120°05'4 8.4
2017-Apr-04 00:49N 32°15' W 120°10'2 5.9
2017-Apr-04 00:25N 32°16' W 120°13'8 5.4
2017-Apr-03 22:59N 32°17' W 120°22'1 1.7
2017-Apr-03 22:30N 32°18' W 120°23'1 1.5
2017-Apr-03 21:57N 32°17' W 120°23'7 5.7
2017-Apr-03 20:40N 32°11' W 120°18'9 6.2
2017-Apr-03 19:10N 32°03' W 120°12'2 6.2
2017-Apr-03 18:55N 32°01' W 120°11'3 7.3
2017-Apr-03 18:27N 31°59' W 120°09'13 7.5
2017-Apr-03 16:46N 31°47' W 120°02'2 6.1
2017-Apr-03 16:30N 31°46' W 120°01'9 5.4
2017-Apr-03 14:54N 31°38' W 119°56'1 2.8
2017-Apr-03 14:25N 31°37' W 119°55'3 1.4
2017-Apr-03 12:19N 31°40' W 119°55'2 1.4
2017-Apr-03 10:50N 31°42' W 119°55'0 1.2
2017-Apr-03 10:30N 31°43' W 119°55'1 1.3
2017-Apr-03 10:00N 31°43' W 119°54'1 1.4
2017-Apr-03 09:28N 31°44' W 119°54'1 1.4
2017-Apr-03 09:00N 31°45' W 119°54'1 1.4
2017-Apr-03 08:24N 31°46' W 119°54'1 1.5
2017-Apr-03 07:59N 31°46' W 119°53'1 1.6
2017-Apr-03 07:30N 31°47' W 119°53'1 1.5
2017-Apr-03 06:57N 31°48' W 119°53'1 1.6
2017-Apr-03 06:30N 31°48' W 119°53'1 1.6
2017-Apr-03 05:54N 31°49' W 119°52'1 1.7
2017-Apr-03 05:25N 31°50' W 119°52'1 1.7
2017-Apr-03 04:53N 31°51' W 119°52'3 1.7
2017-Apr-03 03:12N 31°54' W 119°51'3 1.8
2017-Apr-03 01:35N 31°57' W 119°51'1 1.8
2017-Apr-03 01:14N 31°57' W 119°51'0 1.8
2017-Apr-03 00:58N 31°58' W 119°51'2 1.9
2017-Apr-02 23:45N 32°00' W 119°51'1 2.0
2017-Apr-02 23:15N 32°01' W 119°51'1 2.0
2017-Apr-02 23:00N 32°02' W 119°51'3 2.0
2017-Apr-02 21:25N 32°05' W 119°51'1 1.5
2017-Apr-02 21:00N 32°05' W 119°51'510.6
2017-Apr-02 20:30N 32°04' W 119°45'5 9.4
2017-Apr-02 20:00N 32°03' W 119°39'1 1.8
2017-Apr-02 19:30N 32°04' W 119°39'1 1.8
2017-Apr-02 19:00N 32°05' W 119°39'1 1.7
2017-Apr-02 18:22N 32°06' W 119°40'1 1.7
2017-Apr-02 18:00N 32°07' W 119°40'1 1.8
2017-Apr-02 17:30N 32°08' W 119°40'1 1.6
2017-Apr-02 17:00N 32°08' W 119°40'1 1.5
2017-Apr-02 16:30N 32°09' W 119°40'1 1.4
2017-Apr-02 16:00N 32°10' W 119°41'1 1.4
2017-Apr-02 15:30N 32°11' W 119°41'1 1.4
2017-Apr-02 15:00N 32°11' W 119°41'2 1.7
2017-Apr-02 14:00N 32°13' W 119°42'1 1.7
2017-Apr-02 13:30N 32°14' W 119°42'1 1.8
2017-Apr-02 13:00N 32°14' W 119°43'1 1.7
2017-Apr-02 12:15N 32°15' W 119°44'0 1.6
2017-Apr-02 12:00N 32°16' W 119°44'1 1.4
2017-Apr-02 11:30N 32°16' W 119°44'1 1.4
2017-Apr-02 11:00N 32°17' W 119°45'1 1.2
2017-Apr-02 10:30N 32°17' W 119°45'1 1.2
2017-Apr-02 10:00N 32°17' W 119°45'5 9.5
2017-Apr-02 09:30N 32°16' W 119°39'712.9
2017-Apr-02 09:00N 32°17' W 119°31'613.0
2017-Apr-02 08:30N 32°18' W 119°24'713.3
2017-Apr-02 08:00N 32°18' W 119°16'713.1
2017-Apr-02 07:30N 32°19' W 119°08'713.0
2017-Apr-02 07:00N 32°20' W 119°01'713.3
2017-Apr-02 06:30N 32°22' W 118°53'713.3
2017-Apr-02 06:00N 32°24' W 118°46'713.2
2017-Apr-02 05:30N 32°27' W 118°39'713.1
2017-Apr-02 05:00N 32°29' W 118°32'713.3
2017-Apr-02 04:30N 32°32' W 118°24'713.4
2017-Apr-02 04:00N 32°34' W 118°17'713.2
2017-Apr-02 03:30N 32°37' W 118°10'714.2
2017-Apr-02 03:00N 32°45' W 118°09'713.9
2017-Apr-02 02:31N 32°51' W 118°08'713.8
2017-Apr-02 02:01N 32°58' W 118°08'714.1
2017-Apr-02 01:31N 33°05' W 118°08'714.2
2017-Apr-02 01:01N 33°12' W 118°07'713.9
2017-Apr-02 00:30N 33°19' W 118°06'611.8
2017-Apr-02 00:00N 33°25' W 118°08'611.7
2017-Apr-01 23:30N 33°31' W 118°11'611.4
2017-Apr-01 23:00N 33°36' W 118°13'611.1
2017-Apr-01 22:30N 33°41' W 118°10'2 2.6
2017-Apr-01 21:55N 33°42' W 118°08'0 0.0
2017-Apr-01 21:28N 33°42' W 118°08'0 0.0
2017-Apr-01 20:58N 33°42' W 118°08'0 0.0
2017-Apr-01 20:28N 33°42' W 118°08'0 0.0
2017-Apr-01 19:58N 33°42' W 118°08'0 0.0
2017-Apr-01 19:28N 33°42' W 118°08'0 0.1
2017-Apr-01 18:55N 33°42' W 118°09'0 0.0
2017-Apr-01 18:28N 33°42' W 118°09'0 0.0
2017-Apr-01 16:49N 33°42' W 118°08'0 0.0
2017-Apr-01 16:25N 33°42' W 118°08'0 0.0
2017-Apr-01 15:58N 33°42' W 118°08'0 0.0
2017-Apr-01 15:25N 33°42' W 118°08'0 0.0
2017-Apr-01 14:55N 33°42' W 118°08'0 0.1
2017-Apr-01 13:55N 33°42' W 118°08'0 0.0
2017-Apr-01 13:25N 33°42' W 118°08'0 0.0
2017-Apr-01 12:49N 33°42' W 118°08'0 0.0
2017-Apr-01 12:13N 33°42' W 118°08'0 0.0
2017-Apr-01 11:55N 33°42' W 118°08'0 0.1
2017-Apr-01 11:28N 33°42' W 118°08'0 0.1
2017-Apr-01 10:58N 33°42' W 118°08'0 0.0
2017-Apr-01 10:01N 33°42' W 118°08'0 0.1
2017-Apr-01 09:52N 33°42' W 118°08'0 0.1
2017-Apr-01 09:25N 33°42' W 118°08'0 0.1
2017-Apr-01 08:55N 33°42' W 118°08'0 0.0
2017-Apr-01 08:25N 33°42' W 118°08'0 0.0
2017-Apr-01 07:58N 33°42' W 118°08'0 0.0
2017-Apr-01 07:28N 33°42' W 118°08'0 0.0
2017-Apr-01 06:58N 33°42' W 118°08'0 0.0
2017-Apr-01 06:28N 33°42' W 118°08'0 0.0
2017-Apr-01 05:58N 33°42' W 118°08'0 0.0
2017-Apr-01 05:28N 33°42' W 118°08'0 0.1
2017-Apr-01 04:58N 33°42' W 118°08'0 0.1
2017-Apr-01 04:28N 33°42' W 118°08'0 0.1
2017-Apr-01 03:58N 33°42' W 118°08'0 0.0
2017-Apr-01 03:28N 33°42' W 118°08'0 0.0
2017-Apr-01 02:52N 33°42' W 118°08'0 0.0
2017-Apr-01 02:25N 33°42' W 118°08'0 0.1
2017-Apr-01 01:58N 33°42' W 118°08'0 0.1
2017-Apr-01 01:25N 33°42' W 118°08'0 0.0
2017-Apr-01 00:55N 33°42' W 118°08'0 0.0
2017-Apr-01 00:19N 33°42' W 118°08'0 0.0
2017-Mar-31 23:55N 33°42' W 118°08'0 0.0
2017-Mar-31 23:13N 33°42' W 118°08'0 0.0
2017-Mar-31 22:49N 33°42' W 118°08'0 0.0
2017-Mar-31 22:28N 33°42' W 118°08'0 0.0
2017-Mar-31 21:58N 33°42' W 118°08'0 0.0
2017-Mar-31 21:28N 33°42' W 118°08'0 0.0
2017-Mar-31 20:58N 33°42' W 118°08'0 0.1
2017-Mar-31 20:28N 33°42' W 118°08'0 0.1
2017-Mar-31 19:58N 33°42' W 118°08'0 0.1
2017-Mar-31 19:28N 33°42' W 118°08'0 0.0
2017-Mar-31 18:58N 33°42' W 118°08'0 0.0
2017-Mar-31 18:25N 33°42' W 118°08'0 0.0
2017-Mar-31 17:55N 33°42' W 118°08'0 0.1
2017-Mar-31 17:28N 33°42' W 118°08'0 0.0
2017-Mar-31 12:01N 33°42' W 118°08'0 0.1
2017-Mar-31 11:49N 33°42' W 118°08'0 0.1
2017-Mar-31 09:31N 33°42' W 118°09'0 0.2
2017-Mar-31 09:13N 33°42' W 118°08'0 0.0
2017-Mar-31 08:55N 33°42' W 118°08'0 0.0
2017-Mar-31 08:19N 33°42' W 118°08'0 0.1
2017-Mar-31 07:55N 33°42' W 118°09'0 0.0
2017-Mar-31 07:19N 33°42' W 118°09'0 0.1
2017-Mar-31 06:43N 33°42' W 118°08'0 0.0
2017-Mar-31 06:25N 33°42' W 118°08'0 0.1
2017-Mar-31 03:23N 33°42' W 118°09'4 1.3
2017-Mar-31 00:16N 33°44' W 118°13'0 0.0
2017-Mar-30 23:31N 33°44' W 118°13'0 0.0
2017-Mar-30 22:33N 33°44' W 118°13'0 0.1
2017-Mar-30 21:33N 33°44' W 118°13'0 0.1
2017-Mar-30 20:33N 33°44' W 118°13'0 0.0
2017-Mar-30 19:34N 33°44' W 118°13'0 0.1
2017-Mar-30 18:33N 33°44' W 118°13'0 0.0
2017-Mar-30 17:33N 33°44' W 118°13'0 0.1
2017-Mar-30 16:34N 33°44' W 118°13'0 0.3
2017-Mar-30 15:34N 33°44' W 118°13'6 5.7
2017-Mar-30 14:33N 33°38' W 118°13'9 8.7
2017-Mar-30 13:34N 33°37' W 118°23'1110.5
2017-Mar-30 12:33N 33°42' W 118°34'1211.6
2017-Mar-30 11:34N 33°48' W 118°46'3 2.5
2017-Mar-30 10:33N 33°46' W 118°48'1 1.0
2017-Mar-30 09:34N 33°45' W 118°47'7 7.5
2017-Mar-30 08:34N 33°51' W 118°53'1110.6
2017-Mar-30 07:34N 33°52' W 119°05'1212.1
2017-Mar-30 06:33N 33°50' W 119°20'1212.3
2017-Mar-30 05:34N 33°48' W 119°34'1111.3
2017-Mar-30 04:33N 33°46' W 119°48'1110.7
2017-Mar-30 03:33N 33°44' W 120°00'1211.1
2017-Mar-30 02:28N 33°44' W 120°15'  

Dump ship's entire track history